sensor_id;sensor_type;location;lat;lon;timestamp;P1;durP1;ratioP1;P2;durP2;ratioP2
77304;SDS011;66364;52.622;7.746;2023-02-03T00:01:18;18.00;;;14.37;;
77304;SDS011;66364;52.622;7.746;2023-02-03T00:03:19;19.03;;;14.50;;
77304;SDS011;66364;52.622;7.746;2023-02-03T00:05:20;20.75;;;14.98;;
77304;SDS011;66364;52.622;7.746;2023-02-03T00:07:23;20.12;;;14.50;;
77304;SDS011;66364;52.622;7.746;2023-02-03T00:09:24;22.70;;;15.95;;
77304;SDS011;66364;52.622;7.746;2023-02-03T00:11:26;23.22;;;14.73;;
77304;SDS011;66364;52.622;7.746;2023-02-03T00:13:42;26.07;;;13.22;;
77304;SDS011;66364;52.622;7.746;2023-02-03T00:15:42;15.98;;;14.15;;
77304;SDS011;66364;52.622;7.746;2023-02-03T00:17:44;18.32;;;13.13;;
77304;SDS011;66364;52.622;7.746;2023-02-03T00:19:45;18.85;;;13.83;;
77304;SDS011;66364;52.622;7.746;2023-02-03T00:21:46;17.77;;;13.63;;
77304;SDS011;66364;52.622;7.746;2023-02-03T00:23:47;18.60;;;14.57;;
77304;SDS011;66364;52.622;7.746;2023-02-03T00:25:48;15.85;;;14.07;;
77304;SDS011;66364;52.622;7.746;2023-02-03T00:27:49;15.97;;;12.70;;
77304;SDS011;66364;52.622;7.746;2023-02-03T00:29:51;20.95;;;13.50;;
77304;SDS011;66364;52.622;7.746;2023-02-03T00:31:52;21.15;;;15.30;;
77304;SDS011;66364;52.622;7.746;2023-02-03T00:33:54;21.75;;;14.25;;
77304;SDS011;66364;52.622;7.746;2023-02-03T00:38:10;22.32;;;14.15;;
77304;SDS011;66364;52.622;7.746;2023-02-03T00:40:11;18.93;;;12.40;;
77304;SDS011;66364;52.622;7.746;2023-02-03T00:42:12;17.05;;;12.47;;
77304;SDS011;66364;52.622;7.746;2023-02-03T00:44:14;15.72;;;11.25;;
77304;SDS011;66364;52.622;7.746;2023-02-03T00:46:16;18.62;;;13.10;;
77304;SDS011;66364;52.622;7.746;2023-02-03T00:48:17;16.52;;;11.60;;
77304;SDS011;66364;52.622;7.746;2023-02-03T00:50:19;12.88;;;11.38;;
77304;SDS011;66364;52.622;7.746;2023-02-03T00:52:19;13.60;;;9.90;;
77304;SDS011;66364;52.622;7.746;2023-02-03T00:54:28;19.15;;;11.35;;
77304;SDS011;66364;52.622;7.746;2023-02-03T00:56:29;15.35;;;10.38;;
77304;SDS011;66364;52.622;7.746;2023-02-03T00:58:30;13.90;;;10.37;;
77304;SDS011;66364;52.622;7.746;2023-02-03T01:00:31;20.35;;;9.25;;
77304;SDS011;66364;52.622;7.746;2023-02-03T01:02:32;20.25;;;11.43;;
77304;SDS011;66364;52.622;7.746;2023-02-03T01:04:33;13.05;;;8.20;;
77304;SDS011;66364;52.622;7.746;2023-02-03T01:06:35;17.67;;;11.60;;
77304;SDS011;66364;52.622;7.746;2023-02-03T01:08:36;18.77;;;10.98;;
77304;SDS011;66364;52.622;7.746;2023-02-03T01:10:37;26.25;;;10.68;;
77304;SDS011;66364;52.622;7.746;2023-02-03T01:12:38;16.17;;;9.77;;
77304;SDS011;66364;52.622;7.746;2023-02-03T01:14:39;12.30;;;9.57;;
77304;SDS011;66364;52.622;7.746;2023-02-03T01:16:40;16.00;;;9.97;;
77304;SDS011;66364;52.622;7.746;2023-02-03T01:18:41;19.87;;;9.95;;
77304;SDS011;66364;52.622;7.746;2023-02-03T01:20:43;12.30;;;8.65;;
77304;SDS011;66364;52.622;7.746;2023-02-03T01:22:43;17.63;;;9.87;;
77304;SDS011;66364;52.622;7.746;2023-02-03T01:24:45;16.85;;;10.40;;
77304;SDS011;66364;52.622;7.746;2023-02-03T01:26:46;15.78;;;9.55;;
77304;SDS011;66364;52.622;7.746;2023-02-03T01:28:58;13.13;;;9.55;;
77304;SDS011;66364;52.622;7.746;2023-02-03T01:33:15;11.35;;;9.75;;
77304;SDS011;66364;52.622;7.746;2023-02-03T01:35:16;14.73;;;10.60;;
77304;SDS011;66364;52.622;7.746;2023-02-03T01:37:18;16.50;;;10.85;;
77304;SDS011;66364;52.622;7.746;2023-02-03T01:39:18;13.43;;;11.00;;
77304;SDS011;66364;52.622;7.746;2023-02-03T01:41:20;13.93;;;9.17;;
77304;SDS011;66364;52.622;7.746;2023-02-03T01:43:27;12.25;;;10.60;;
77304;SDS011;66364;52.622;7.746;2023-02-03T01:45:29;15.80;;;11.00;;
77304;SDS011;66364;52.622;7.746;2023-02-03T01:47:38;13.45;;;10.08;;
77304;SDS011;66364;52.622;7.746;2023-02-03T01:49:38;13.20;;;10.55;;
77304;SDS011;66364;52.622;7.746;2023-02-03T01:51:43;18.48;;;10.90;;
77304;SDS011;66364;52.622;7.746;2023-02-03T01:53:45;14.25;;;10.78;;
77304;SDS011;66364;52.622;7.746;2023-02-03T01:55:47;12.90;;;10.65;;
77304;SDS011;66364;52.622;7.746;2023-02-03T01:57:50;21.52;;;12.23;;
77304;SDS011;66364;52.622;7.746;2023-02-03T01:59:54;16.37;;;10.40;;
77304;SDS011;66364;52.622;7.746;2023-02-03T02:01:57;16.75;;;11.55;;
77304;SDS011;66364;52.622;7.746;2023-02-03T02:04:00;12.88;;;11.53;;
77304;SDS011;66364;52.622;7.746;2023-02-03T02:06:04;13.40;;;10.95;;
77304;SDS011;66364;52.622;7.746;2023-02-03T02:08:11;12.95;;;10.20;;
77304;SDS011;66364;52.622;7.746;2023-02-03T02:10:13;14.07;;;10.85;;
77304;SDS011;66364;52.622;7.746;2023-02-03T02:12:14;14.10;;;11.30;;
77304;SDS011;66364;52.622;7.746;2023-02-03T02:14:14;18.30;;;11.73;;
77304;SDS011;66364;52.622;7.746;2023-02-03T02:18:39;18.15;;;11.78;;
77304;SDS011;66364;52.622;7.746;2023-02-03T02:23:06;16.02;;;10.90;;
77304;SDS011;66364;52.622;7.746;2023-02-03T02:30:09;13.53;;;9.55;;
77304;SDS011;66364;52.622;7.746;2023-02-03T02:36:59;12.23;;;9.78;;
77304;SDS011;66364;52.622;7.746;2023-02-03T02:39:04;12.40;;;9.40;;
77304;SDS011;66364;52.622;7.746;2023-02-03T02:41:19;16.67;;;8.50;;
77304;SDS011;66364;52.622;7.746;2023-02-03T02:43:42;12.47;;;8.85;;
77304;SDS011;66364;52.622;7.746;2023-02-03T02:45:52;15.20;;;9.00;;
77304;SDS011;66364;52.622;7.746;2023-02-03T02:48:01;16.25;;;9.28;;
77304;SDS011;66364;52.622;7.746;2023-02-03T02:52:12;16.07;;;8.50;;
77304;SDS011;66364;52.622;7.746;2023-02-03T02:54:17;13.25;;;9.48;;
77304;SDS011;66364;52.622;7.746;2023-02-03T02:56:21;12.98;;;8.75;;
77304;SDS011;66364;52.622;7.746;2023-02-03T02:58:24;10.43;;;8.45;;
77304;SDS011;66364;52.622;7.746;2023-02-03T03:00:31;8.60;;;7.40;;
77304;SDS011;66364;52.622;7.746;2023-02-03T03:02:34;11.15;;;8.25;;
77304;SDS011;66364;52.622;7.746;2023-02-03T03:04:36;12.20;;;8.65;;
77304;SDS011;66364;52.622;7.746;2023-02-03T03:08:52;17.92;;;8.65;;
77304;SDS011;66364;52.622;7.746;2023-02-03T03:10:55;12.82;;;6.97;;
77304;SDS011;66364;52.622;7.746;2023-02-03T03:13:02;13.08;;;7.95;;
77304;SDS011;66364;52.622;7.746;2023-02-03T03:15:05;14.55;;;7.50;;
77304;SDS011;66364;52.622;7.746;2023-02-03T03:17:08;13.88;;;6.60;;
77304;SDS011;66364;52.622;7.746;2023-02-03T03:19:19;9.98;;;7.17;;
77304;SDS011;66364;52.622;7.746;2023-02-03T03:21:24;15.05;;;7.37;;
77304;SDS011;66364;52.622;7.746;2023-02-03T03:23:29;9.88;;;6.72;;
77304;SDS011;66364;52.622;7.746;2023-02-03T03:25:36;11.68;;;7.20;;
77304;SDS011;66364;52.622;7.746;2023-02-03T03:27:48;8.23;;;5.97;;
77304;SDS011;66364;52.622;7.746;2023-02-03T03:29:50;13.48;;;6.47;;
77304;SDS011;66364;52.622;7.746;2023-02-03T03:31:57;11.65;;;6.28;;
77304;SDS011;66364;52.622;7.746;2023-02-03T03:33:58;11.50;;;5.60;;
77304;SDS011;66364;52.622;7.746;2023-02-03T03:36:04;10.20;;;6.40;;
77304;SDS011;66364;52.622;7.746;2023-02-03T03:38:37;9.18;;;5.62;;
77304;SDS011;66364;52.622;7.746;2023-02-03T03:40:51;7.03;;;5.47;;
77304;SDS011;66364;52.622;7.746;2023-02-03T03:42:57;10.53;;;5.85;;
77304;SDS011;66364;52.622;7.746;2023-02-03T03:45:06;12.05;;;5.10;;
77304;SDS011;66364;52.622;7.746;2023-02-03T03:47:13;14.83;;;6.03;;
77304;SDS011;66364;52.622;7.746;2023-02-03T03:49:16;12.45;;;5.40;;
77304;SDS011;66364;52.622;7.746;2023-02-03T03:51:27;6.50;;;4.97;;
77304;SDS011;66364;52.622;7.746;2023-02-03T03:53:29;7.03;;;4.50;;
77304;SDS011;66364;52.622;7.746;2023-02-03T03:55:33;9.80;;;4.65;;
77304;SDS011;66364;52.622;7.746;2023-02-03T03:58:11;11.45;;;4.75;;
77304;SDS011;66364;52.622;7.746;2023-02-03T04:00:06;10.72;;;5.12;;
77304;SDS011;66364;52.622;7.746;2023-02-03T04:02:09;8.83;;;4.80;;
77304;SDS011;66364;52.622;7.746;2023-02-03T04:04:12;8.75;;;3.58;;
77304;SDS011;66364;52.622;7.746;2023-02-03T04:06:16;11.15;;;5.45;;
77304;SDS011;66364;52.622;7.746;2023-02-03T04:08:18;8.58;;;4.40;;
77304;SDS011;66364;52.622;7.746;2023-02-03T04:10:35;8.67;;;3.83;;
77304;SDS011;66364;52.622;7.746;2023-02-03T04:12:38;10.00;;;4.65;;
77304;SDS011;66364;52.622;7.746;2023-02-03T04:14:38;12.37;;;4.63;;
77304;SDS011;66364;52.622;7.746;2023-02-03T04:16:39;7.17;;;3.57;;
77304;SDS011;66364;52.622;7.746;2023-02-03T04:18:40;6.35;;;3.92;;
77304;SDS011;66364;52.622;7.746;2023-02-03T04:20:41;10.53;;;4.03;;
77304;SDS011;66364;52.622;7.746;2023-02-03T04:22:42;10.35;;;4.80;;
77304;SDS011;66364;52.622;7.746;2023-02-03T04:24:43;10.63;;;4.90;;
77304;SDS011;66364;52.622;7.746;2023-02-03T04:26:44;8.28;;;4.30;;
77304;SDS011;66364;52.622;7.746;2023-02-03T04:28:46;10.07;;;4.10;;
77304;SDS011;66364;52.622;7.746;2023-02-03T04:30:47;8.70;;;4.10;;
77304;SDS011;66364;52.622;7.746;2023-02-03T04:32:48;9.40;;;3.40;;
77304;SDS011;66364;52.622;7.746;2023-02-03T04:34:49;8.80;;;3.60;;
77304;SDS011;66364;52.622;7.746;2023-02-03T04:36:49;5.37;;;3.83;;
77304;SDS011;66364;52.622;7.746;2023-02-03T04:38:51;10.72;;;3.98;;
77304;SDS011;66364;52.622;7.746;2023-02-03T04:40:52;7.65;;;3.30;;
77304;SDS011;66364;52.622;7.746;2023-02-03T04:42:53;7.00;;;3.58;;
77304;SDS011;66364;52.622;7.746;2023-02-03T04:44:55;9.05;;;3.08;;
77304;SDS011;66364;52.622;7.746;2023-02-03T04:46:56;6.33;;;3.57;;
77304;SDS011;66364;52.622;7.746;2023-02-03T04:48:57;6.67;;;2.67;;
77304;SDS011;66364;52.622;7.746;2023-02-03T04:51:01;11.43;;;3.50;;
77304;SDS011;66364;52.622;7.746;2023-02-03T04:53:04;7.12;;;3.40;;
77304;SDS011;66364;52.622;7.746;2023-02-03T04:55:05;8.30;;;3.58;;
77304;SDS011;66364;52.622;7.746;2023-02-03T04:57:07;4.20;;;3.02;;
77304;SDS011;66364;52.622;7.746;2023-02-03T04:59:08;7.97;;;3.40;;
77304;SDS011;66364;52.622;7.746;2023-02-03T05:01:09;8.90;;;3.13;;
77304;SDS011;66364;52.622;7.746;2023-02-03T05:03:14;8.40;;;3.80;;
77304;SDS011;66364;52.622;7.746;2023-02-03T05:05:15;8.78;;;3.50;;
77304;SDS011;66364;52.622;7.746;2023-02-03T05:07:16;9.80;;;3.90;;
77304;SDS011;66364;52.622;7.746;2023-02-03T05:09:17;6.80;;;3.87;;
77304;SDS011;66364;52.622;7.746;2023-02-03T05:11:18;9.23;;;3.77;;
77304;SDS011;66364;52.622;7.746;2023-02-03T05:13:19;4.53;;;2.95;;
77304;SDS011;66364;52.622;7.746;2023-02-03T05:15:22;13.60;;;4.20;;
77304;SDS011;66364;52.622;7.746;2023-02-03T05:17:23;7.55;;;4.08;;
77304;SDS011;66364;52.622;7.746;2023-02-03T05:19:25;6.30;;;3.22;;
77304;SDS011;66364;52.622;7.746;2023-02-03T05:21:26;6.95;;;4.08;;
77304;SDS011;66364;52.622;7.746;2023-02-03T05:23:28;14.40;;;4.17;;
77304;SDS011;66364;52.622;7.746;2023-02-03T05:27:44;7.67;;;3.80;;
77304;SDS011;66364;52.622;7.746;2023-02-03T05:29:45;7.20;;;3.30;;
77304;SDS011;66364;52.622;7.746;2023-02-03T05:31:48;6.15;;;3.67;;
77304;SDS011;66364;52.622;7.746;2023-02-03T05:33:51;12.37;;;3.40;;
77304;SDS011;66364;52.622;7.746;2023-02-03T05:35:52;10.93;;;3.90;;
77304;SDS011;66364;52.622;7.746;2023-02-03T05:37:55;6.92;;;3.72;;
77304;SDS011;66364;52.622;7.746;2023-02-03T05:39:58;8.28;;;3.83;;
77304;SDS011;66364;52.622;7.746;2023-02-03T05:42:00;5.10;;;3.75;;
77304;SDS011;66364;52.622;7.746;2023-02-03T05:44:03;3.33;;;3.02;;
77304;SDS011;66364;52.622;7.746;2023-02-03T05:46:06;8.78;;;5.95;;
77304;SDS011;66364;52.622;7.746;2023-02-03T05:48:07;6.37;;;4.25;;
77304;SDS011;66364;52.622;7.746;2023-02-03T05:50:10;6.22;;;3.60;;
77304;SDS011;66364;52.622;7.746;2023-02-03T05:52:11;5.83;;;3.63;;
77304;SDS011;66364;52.622;7.746;2023-02-03T05:54:14;5.62;;;3.55;;
77304;SDS011;66364;52.622;7.746;2023-02-03T05:56:17;11.57;;;4.50;;
77304;SDS011;66364;52.622;7.746;2023-02-03T05:58:19;6.35;;;4.30;;
77304;SDS011;66364;52.622;7.746;2023-02-03T06:00:21;5.67;;;3.90;;
77304;SDS011;66364;52.622;7.746;2023-02-03T06:02:24;6.78;;;3.70;;
77304;SDS011;66364;52.622;7.746;2023-02-03T06:04:27;11.03;;;4.50;;
77304;SDS011;66364;52.622;7.746;2023-02-03T06:06:29;5.85;;;3.67;;
77304;SDS011;66364;52.622;7.746;2023-02-03T06:08:32;10.38;;;5.22;;
77304;SDS011;66364;52.622;7.746;2023-02-03T06:10:35;10.88;;;4.53;;
77304;SDS011;66364;52.622;7.746;2023-02-03T06:12:36;5.30;;;3.60;;
77304;SDS011;66364;52.622;7.746;2023-02-03T06:14:39;7.72;;;3.70;;
77304;SDS011;66364;52.622;7.746;2023-02-03T06:16:42;11.28;;;3.85;;
77304;SDS011;66364;52.622;7.746;2023-02-03T06:18:45;7.80;;;4.05;;
77304;SDS011;66364;52.622;7.746;2023-02-03T06:20:46;9.83;;;4.13;;
77304;SDS011;66364;52.622;7.746;2023-02-03T06:22:49;8.85;;;4.20;;
77304;SDS011;66364;52.622;7.746;2023-02-03T06:24:51;9.58;;;4.35;;
77304;SDS011;66364;52.622;7.746;2023-02-03T06:26:54;5.97;;;4.55;;
77304;SDS011;66364;52.622;7.746;2023-02-03T06:28:55;7.87;;;4.50;;
77304;SDS011;66364;52.622;7.746;2023-02-03T06:30:56;7.70;;;4.50;;
77304;SDS011;66364;52.622;7.746;2023-02-03T06:32:57;12.95;;;5.42;;
77304;SDS011;66364;52.622;7.746;2023-02-03T06:34:59;8.83;;;4.30;;
77304;SDS011;66364;52.622;7.746;2023-02-03T06:36:59;7.57;;;3.80;;
77304;SDS011;66364;52.622;7.746;2023-02-03T06:39:00;7.90;;;4.47;;
77304;SDS011;66364;52.622;7.746;2023-02-03T06:41:01;8.93;;;4.03;;
77304;SDS011;66364;52.622;7.746;2023-02-03T06:43:02;7.80;;;4.20;;
77304;SDS011;66364;52.622;7.746;2023-02-03T06:45:04;10.25;;;4.78;;
77304;SDS011;66364;52.622;7.746;2023-02-03T06:47:06;11.43;;;4.53;;
77304;SDS011;66364;52.622;7.746;2023-02-03T06:49:07;9.00;;;4.35;;
77304;SDS011;66364;52.622;7.746;2023-02-03T06:51:08;5.60;;;5.10;;
77304;SDS011;66364;52.622;7.746;2023-02-03T06:53:09;8.80;;;4.80;;
77304;SDS011;66364;52.622;7.746;2023-02-03T06:55:10;14.43;;;4.87;;
77304;SDS011;66364;52.622;7.746;2023-02-03T06:57:11;11.22;;;4.22;;
77304;SDS011;66364;52.622;7.746;2023-02-03T06:59:12;10.47;;;5.00;;
77304;SDS011;66364;52.622;7.746;2023-02-03T07:01:15;10.78;;;4.30;;
77304;SDS011;66364;52.622;7.746;2023-02-03T07:03:16;8.60;;;4.42;;
77304;SDS011;66364;52.622;7.746;2023-02-03T07:05:17;10.48;;;4.78;;
77304;SDS011;66364;52.622;7.746;2023-02-03T07:07:19;8.23;;;4.47;;
77304;SDS011;66364;52.622;7.746;2023-02-03T07:09:20;6.50;;;4.93;;
77304;SDS011;66364;52.622;7.746;2023-02-03T07:16:05;7.28;;;4.15;;
77304;SDS011;66364;52.622;7.746;2023-02-03T07:20:34;7.53;;;5.15;;
77304;SDS011;66364;52.622;7.746;2023-02-03T07:22:36;18.02;;;5.47;;
77304;SDS011;66364;52.622;7.746;2023-02-03T07:24:38;9.48;;;4.15;;
77304;SDS011;66364;52.622;7.746;2023-02-03T07:26:39;14.07;;;5.63;;
77304;SDS011;66364;52.622;7.746;2023-02-03T07:28:40;7.40;;;5.00;;
77304;SDS011;66364;52.622;7.746;2023-02-03T07:30:41;8.67;;;4.80;;
77304;SDS011;66364;52.622;7.746;2023-02-03T07:32:50;8.28;;;3.92;;
77304;SDS011;66364;52.622;7.746;2023-02-03T07:34:49;7.17;;;4.85;;
77304;SDS011;66364;52.622;7.746;2023-02-03T07:36:50;11.93;;;3.80;;
77304;SDS011;66364;52.622;7.746;2023-02-03T07:38:51;6.87;;;4.42;;
77304;SDS011;66364;52.622;7.746;2023-02-03T07:40:52;8.43;;;4.97;;
77304;SDS011;66364;52.622;7.746;2023-02-03T07:42:54;11.22;;;6.25;;
77304;SDS011;66364;52.622;7.746;2023-02-03T07:44:55;11.27;;;4.50;;
77304;SDS011;66364;52.622;7.746;2023-02-03T07:46:56;11.15;;;5.25;;
77304;SDS011;66364;52.622;7.746;2023-02-03T07:48:57;6.30;;;4.40;;
77304;SDS011;66364;52.622;7.746;2023-02-03T07:50:58;10.40;;;4.60;;
77304;SDS011;66364;52.622;7.746;2023-02-03T07:52:59;6.30;;;4.27;;
77304;SDS011;66364;52.622;7.746;2023-02-03T07:55:00;14.47;;;5.00;;
77304;SDS011;66364;52.622;7.746;2023-02-03T07:57:02;17.65;;;4.92;;
77304;SDS011;66364;52.622;7.746;2023-02-03T07:59:03;9.35;;;4.08;;
77304;SDS011;66364;52.622;7.746;2023-02-03T08:01:09;5.90;;;3.92;;
77304;SDS011;66364;52.622;7.746;2023-02-03T08:03:11;9.98;;;4.60;;
77304;SDS011;66364;52.622;7.746;2023-02-03T08:05:12;12.03;;;4.50;;
77304;SDS011;66364;52.622;7.746;2023-02-03T08:09:24;8.45;;;4.50;;
77304;SDS011;66364;52.622;7.746;2023-02-03T08:11:25;8.60;;;4.40;;
77304;SDS011;66364;52.622;7.746;2023-02-03T08:13:26;12.65;;;4.50;;
77304;SDS011;66364;52.622;7.746;2023-02-03T08:15:27;12.23;;;6.50;;
77304;SDS011;66364;52.622;7.746;2023-02-03T08:17:28;7.30;;;4.22;;
77304;SDS011;66364;52.622;7.746;2023-02-03T08:19:34;8.68;;;4.20;;
77304;SDS011;66364;52.622;7.746;2023-02-03T08:21:35;9.40;;;4.78;;
77304;SDS011;66364;52.622;7.746;2023-02-03T08:23:37;12.13;;;4.55;;
77304;SDS011;66364;52.622;7.746;2023-02-03T08:25:38;6.27;;;3.90;;
77304;SDS011;66364;52.622;7.746;2023-02-03T08:27:57;10.20;;;4.83;;
77304;SDS011;66364;52.622;7.746;2023-02-03T08:29:58;10.32;;;5.80;;
77304;SDS011;66364;52.622;7.746;2023-02-03T08:31:59;17.92;;;5.50;;
77304;SDS011;66364;52.622;7.746;2023-02-03T08:34:00;10.10;;;6.20;;
77304;SDS011;66364;52.622;7.746;2023-02-03T08:36:02;17.80;;;6.05;;
77304;SDS011;66364;52.622;7.746;2023-02-03T08:38:03;11.50;;;5.45;;
77304;SDS011;66364;52.622;7.746;2023-02-03T08:40:05;11.33;;;6.47;;
77304;SDS011;66364;52.622;7.746;2023-02-03T08:42:08;11.35;;;5.95;;
77304;SDS011;66364;52.622;7.746;2023-02-03T08:44:09;16.35;;;6.78;;
77304;SDS011;66364;52.622;7.746;2023-02-03T08:46:11;14.95;;;5.37;;
77304;SDS011;66364;52.622;7.746;2023-02-03T08:48:13;16.77;;;5.80;;
77304;SDS011;66364;52.622;7.746;2023-02-03T08:50:14;9.73;;;5.92;;
77304;SDS011;66364;52.622;7.746;2023-02-03T08:52:16;10.05;;;6.28;;
77304;SDS011;66364;52.622;7.746;2023-02-03T08:54:17;11.33;;;5.80;;
77304;SDS011;66364;52.622;7.746;2023-02-03T08:56:18;8.45;;;5.40;;
77304;SDS011;66364;52.622;7.746;2023-02-03T08:58:19;13.27;;;8.47;;
77304;SDS011;66364;52.622;7.746;2023-02-03T09:00:20;14.43;;;6.55;;
77304;SDS011;66364;52.622;7.746;2023-02-03T09:02:22;12.33;;;5.83;;
77304;SDS011;66364;52.622;7.746;2023-02-03T09:04:24;11.90;;;6.03;;
77304;SDS011;66364;52.622;7.746;2023-02-03T09:06:25;9.88;;;6.80;;
77304;SDS011;66364;52.622;7.746;2023-02-03T09:08:27;12.28;;;6.67;;
77304;SDS011;66364;52.622;7.746;2023-02-03T09:10:28;14.07;;;5.90;;
77304;SDS011;66364;52.622;7.746;2023-02-03T09:12:29;14.77;;;6.33;;
77304;SDS011;66364;52.622;7.746;2023-02-03T09:14:30;14.90;;;6.10;;
77304;SDS011;66364;52.622;7.746;2023-02-03T09:16:32;9.33;;;6.10;;
77304;SDS011;66364;52.622;7.746;2023-02-03T09:18:34;9.78;;;6.28;;
77304;SDS011;66364;52.622;7.746;2023-02-03T09:20:35;15.10;;;5.95;;
77304;SDS011;66364;52.622;7.746;2023-02-03T09:22:36;13.38;;;5.17;;
77304;SDS011;66364;52.622;7.746;2023-02-03T09:24:38;15.38;;;6.35;;
77304;SDS011;66364;52.622;7.746;2023-02-03T09:26:39;12.07;;;5.63;;
77304;SDS011;66364;52.622;7.746;2023-02-03T09:28:40;10.27;;;6.40;;
77304;SDS011;66364;52.622;7.746;2023-02-03T09:30:40;21.97;;;7.97;;
77304;SDS011;66364;52.622;7.746;2023-02-03T09:32:42;12.10;;;6.60;;
77304;SDS011;66364;52.622;7.746;2023-02-03T09:34:43;11.85;;;6.67;;
77304;SDS011;66364;52.622;7.746;2023-02-03T09:36:44;8.30;;;5.90;;
77304;SDS011;66364;52.622;7.746;2023-02-03T09:38:45;16.50;;;5.20;;
77304;SDS011;66364;52.622;7.746;2023-02-03T09:40:58;18.37;;;6.10;;
77304;SDS011;66364;52.622;7.746;2023-02-03T09:43:34;10.40;;;6.30;;
77304;SDS011;66364;52.622;7.746;2023-02-03T09:45:23;10.75;;;6.83;;
77304;SDS011;66364;52.622;7.746;2023-02-03T09:47:31;13.48;;;4.90;;
77304;SDS011;66364;52.622;7.746;2023-02-03T09:49:41;18.95;;;6.85;;
77304;SDS011;66364;52.622;7.746;2023-02-03T09:51:46;20.00;;;6.85;;
77304;SDS011;66364;52.622;7.746;2023-02-03T09:53:56;15.85;;;6.58;;
77304;SDS011;66364;52.622;7.746;2023-02-03T09:55:58;17.92;;;6.22;;
77304;SDS011;66364;52.622;7.746;2023-02-03T09:58:14;14.98;;;5.15;;
77304;SDS011;66364;52.622;7.746;2023-02-03T10:00:22;13.72;;;5.78;;
77304;SDS011;66364;52.622;7.746;2023-02-03T10:04:38;15.45;;;5.45;;
77304;SDS011;66364;52.622;7.746;2023-02-03T10:06:51;21.25;;;5.60;;
77304;SDS011;66364;52.622;7.746;2023-02-03T10:16:34;13.38;;;5.08;;
77304;SDS011;66364;52.622;7.746;2023-02-03T10:18:39;15.25;;;5.90;;
77304;SDS011;66364;52.622;7.746;2023-02-03T10:20:42;19.50;;;5.95;;
77304;SDS011;66364;52.622;7.746;2023-02-03T10:22:53;15.48;;;5.00;;
77304;SDS011;66364;52.622;7.746;2023-02-03T10:25:00;12.28;;;6.47;;
77304;SDS011;66364;52.622;7.746;2023-02-03T10:27:17;30.55;;;7.20;;
77304;SDS011;66364;52.622;7.746;2023-02-03T10:29:26;18.65;;;6.95;;
77304;SDS011;66364;52.622;7.746;2023-02-03T10:31:38;23.57;;;6.08;;
77304;SDS011;66364;52.622;7.746;2023-02-03T10:33:39;21.00;;;6.97;;
77304;SDS011;66364;52.622;7.746;2023-02-03T10:38:42;16.60;;;5.70;;
77304;SDS011;66364;52.622;7.746;2023-02-03T10:40:45;20.27;;;7.08;;
77304;SDS011;66364;52.622;7.746;2023-02-03T10:42:46;29.48;;;7.40;;
77304;SDS011;66364;52.622;7.746;2023-02-03T10:44:57;20.92;;;6.58;;
77304;SDS011;66364;52.622;7.746;2023-02-03T10:46:59;19.98;;;6.70;;
77304;SDS011;66364;52.622;7.746;2023-02-03T10:49:00;25.63;;;6.60;;
77304;SDS011;66364;52.622;7.746;2023-02-03T10:51:02;20.35;;;8.20;;
77304;SDS011;66364;52.622;7.746;2023-02-03T10:53:31;25.05;;;7.55;;
77304;SDS011;66364;52.622;7.746;2023-02-03T10:55:46;16.57;;;6.08;;
77304;SDS011;66364;52.622;7.746;2023-02-03T10:57:50;18.92;;;5.85;;
77304;SDS011;66364;52.622;7.746;2023-02-03T11:00:03;23.52;;;6.67;;
77304;SDS011;66364;52.622;7.746;2023-02-03T11:02:09;27.90;;;7.78;;
77304;SDS011;66364;52.622;7.746;2023-02-03T11:04:23;24.47;;;5.97;;
77304;SDS011;66364;52.622;7.746;2023-02-03T11:06:32;25.08;;;5.70;;
77304;SDS011;66364;52.622;7.746;2023-02-03T11:08:34;22.05;;;5.85;;
77304;SDS011;66364;52.622;7.746;2023-02-03T11:10:37;13.43;;;5.25;;
77304;SDS011;66364;52.622;7.746;2023-02-03T11:12:38;20.40;;;5.72;;
77304;SDS011;66364;52.622;7.746;2023-02-03T11:16:49;19.17;;;5.97;;
77304;SDS011;66364;52.622;7.746;2023-02-03T11:18:51;17.37;;;7.80;;
77304;SDS011;66364;52.622;7.746;2023-02-03T11:20:58;21.73;;;5.90;;
77304;SDS011;66364;52.622;7.746;2023-02-03T11:22:59;17.05;;;5.78;;
77304;SDS011;66364;52.622;7.746;2023-02-03T11:25:03;22.58;;;6.75;;
77304;SDS011;66364;52.622;7.746;2023-02-03T11:27:12;19.23;;;5.67;;
77304;SDS011;66364;52.622;7.746;2023-02-03T11:29:27;18.00;;;5.80;;
77304;SDS011;66364;52.622;7.746;2023-02-03T11:31:33;33.05;;;7.28;;
77304;SDS011;66364;52.622;7.746;2023-02-03T11:33:35;13.15;;;4.72;;
77304;SDS011;66364;52.622;7.746;2023-02-03T11:35:38;20.92;;;5.92;;
77304;SDS011;66364;52.622;7.746;2023-02-03T11:37:40;17.40;;;6.03;;
77304;SDS011;66364;52.622;7.746;2023-02-03T11:39:43;16.75;;;5.35;;
77304;SDS011;66364;52.622;7.746;2023-02-03T11:41:45;19.85;;;5.53;;
77304;SDS011;66364;52.622;7.746;2023-02-03T11:43:48;18.57;;;6.95;;
77304;SDS011;66364;52.622;7.746;2023-02-03T11:45:50;18.20;;;5.40;;
77304;SDS011;66364;52.622;7.746;2023-02-03T11:52:44;18.37;;;5.40;;
77304;SDS011;66364;52.622;7.746;2023-02-03T11:54:39;22.82;;;5.30;;
77304;SDS011;66364;52.622;7.746;2023-02-03T12:04:17;14.95;;;4.22;;
77304;SDS011;66364;52.622;7.746;2023-02-03T12:16:11;29.20;;;6.30;;
77304;SDS011;66364;52.622;7.746;2023-02-03T12:22:58;18.17;;;6.28;;
77304;SDS011;66364;52.622;7.746;2023-02-03T12:27:49;24.00;;;5.22;;
77304;SDS011;66364;52.622;7.746;2023-02-03T12:30:02;24.75;;;6.90;;
77304;SDS011;66364;52.622;7.746;2023-02-03T12:34:41;17.98;;;6.25;;
77304;SDS011;66364;52.622;7.746;2023-02-03T12:37:02;25.35;;;5.67;;
77304;SDS011;66364;52.622;7.746;2023-02-03T12:41:27;22.22;;;5.03;;
77304;SDS011;66364;52.622;7.746;2023-02-03T12:45:35;16.62;;;5.95;;
77304;SDS011;66364;52.622;7.746;2023-02-03T12:50:04;14.13;;;5.05;;
77304;SDS011;66364;52.622;7.746;2023-02-03T12:52:11;20.30;;;6.95;;
77304;SDS011;66364;52.622;7.746;2023-02-03T12:56:36;24.95;;;6.62;;
77304;SDS011;66364;52.622;7.746;2023-02-03T12:58:51;23.30;;;6.55;;
77304;SDS011;66364;52.622;7.746;2023-02-03T13:00:57;15.83;;;4.85;;
77304;SDS011;66364;52.622;7.746;2023-02-03T13:03:18;20.92;;;5.53;;
77304;SDS011;66364;52.622;7.746;2023-02-03T13:05:31;22.95;;;6.40;;
77304;SDS011;66364;52.622;7.746;2023-02-03T13:07:39;21.15;;;6.60;;
77304;SDS011;66364;52.622;7.746;2023-02-03T13:14:22;22.35;;;5.92;;
77304;SDS011;66364;52.622;7.746;2023-02-03T13:16:28;21.60;;;6.95;;
77304;SDS011;66364;52.622;7.746;2023-02-03T13:18:35;24.30;;;6.90;;
77304;SDS011;66364;52.622;7.746;2023-02-03T13:20:38;16.62;;;4.87;;
77304;SDS011;66364;52.622;7.746;2023-02-03T13:22:39;21.27;;;6.20;;
77304;SDS011;66364;52.622;7.746;2023-02-03T13:24:42;13.40;;;5.93;;
77304;SDS011;66364;52.622;7.746;2023-02-03T13:26:51;23.60;;;6.35;;
77304;SDS011;66364;52.622;7.746;2023-02-03T13:39:10;19.50;;;6.35;;
77304;SDS011;66364;52.622;7.746;2023-02-03T13:41:19;21.07;;;5.78;;
77304;SDS011;66364;52.622;7.746;2023-02-03T13:43:47;23.32;;;5.12;;
77304;SDS011;66364;52.622;7.746;2023-02-03T13:45:49;17.75;;;5.33;;
77304;SDS011;66364;52.622;7.746;2023-02-03T13:47:53;23.77;;;5.72;;
77304;SDS011;66364;52.622;7.746;2023-02-03T13:50:02;28.23;;;5.90;;
77304;SDS011;66364;52.622;7.746;2023-02-03T13:52:05;18.55;;;5.53;;
77304;SDS011;66364;52.622;7.746;2023-02-03T13:54:25;17.50;;;5.22;;
77304;SDS011;66364;52.622;7.746;2023-02-03T13:56:22;23.65;;;6.40;;
77304;SDS011;66364;52.622;7.746;2023-02-03T14:02:53;26.02;;;8.25;;
77304;SDS011;66364;52.622;7.746;2023-02-03T14:04:58;17.65;;;6.17;;
77304;SDS011;66364;52.622;7.746;2023-02-03T14:06:59;21.30;;;5.80;;